»·PEaware :: UPS849 KPHX-KONT

UPS849 :: KPHX-KONT

FLIGHT INFORMATION

Flight Status: Arrived
Operator:
United Parcel Service
More flights by this operator :: More flights under this callsign
Pilot: Jamyson D. (13674)
Aircraft: BOEING 767-300
(B763)
More flights by this aircraft type
Origin: KPHX Phoenix Sky Harbor Intl
United States
Destination: KONT Ontario Intl
United States
More flights between these airports :: More routes between these airports
Route: +KEENS2 HRRBR PHRED SCBBY2
File this flight plan on PilotEdge
Remarks:
Altitude:
(Current/Filed)
36,000ft
Speed:
(Current/Filed)
462kts
Departed: 08-Nov-18 06:41 PM
Arrived: 08-Nov-18 07:42 PM
Distance/Time
Traveled:
280nm/1:01
Distance/Time
To Go:
Arrived

Flight Plot

Page will automatically refresh every two minutes.

Flight plan parsing failed; only flown route is shown


Map Options




Map Legend


Flown Route
Filed Route
Departure Airport
Arrival Airport
Navaid (VOR, NDB)
Fix

Horizontal Profiles

Position Reports

Time Latitude Longitude Heading Altitude Ground
Speed
08-Nov-18 18:32 33.434124 -112.027079 0 1120ft 0kts
08-Nov-18 18:33 33.434124 -112.027079 0 1120ft 0kts
08-Nov-18 18:34 33.434124 -112.027079 0 1120ft 0kts
08-Nov-18 18:35 33.434124 -112.027079 0 1120ft 0kts
08-Nov-18 18:36 33.434124 -112.027079 0 1120ft 0kts
08-Nov-18 18:37 33.434124 -112.027079 0 1120ft 0kts
08-Nov-18 18:38 33.433731 -112.026890 312 1120ft 2kts
08-Nov-18 18:39 33.433575 -112.026271 269 1120ft 0kts
08-Nov-18 18:40 33.433575 -112.026254 269 1120ft 0kts
08-Nov-18 18:41 33.433575 -112.026254 269 1120ft 0kts
08-Nov-18 18:42 33.432451 -112.028176 157 1120ft 10kts
08-Nov-18 18:43 33.431988 -112.027088 142 1120ft 0kts
08-Nov-18 18:44 33.431049 -112.021728 90 1120ft 83kts
08-Nov-18 18:45 33.430945 -111.969632 88 2735ft 183kts
08-Nov-18 18:46 33.433797 -111.902691 89 4351ft 232kts
08-Nov-18 18:47 33.397208 -111.847591 183 7130ft 245kts
08-Nov-18 18:48 33.352850 -111.899719 275 9909ft 261kts
08-Nov-18 18:49 33.361783 -111.990963 276 11937ft 305kts
08-Nov-18 18:50 33.376721 -112.100056 279 13500ft 353kts
08-Nov-18 18:51 33.394535 -112.220123 278 15657ft 390kts
08-Nov-18 18:52 33.414350 -112.354825 277 17703ft 424kts
08-Nov-18 18:53 33.434898 -112.495554 275 20116ft 435kts
08-Nov-18 18:54 33.450400 -112.638657 265 23276ft 434kts
08-Nov-18 18:55 33.452587 -112.781062 266 26489ft 433kts
08-Nov-18 18:56 33.475869 -112.924008 284 29545ft 435kts
08-Nov-18 18:57 33.501034 -113.058259 280 33209ft 405kts
08-Nov-18 18:58 33.525060 -113.188118 280 35214ft 398kts
08-Nov-18 18:59 33.548769 -113.317035 280 36003ft 394kts
08-Nov-18 19:00 33.572066 -113.444470 280 36001ft 394kts
08-Nov-18 19:01 33.595665 -113.572494 280 36006ft 393kts
08-Nov-18 19:02 33.618805 -113.696820 279 36051ft 394kts
08-Nov-18 19:03 33.642445 -113.824600 279 36067ft 394kts
08-Nov-18 19:04 33.648207 -113.953711 268 36065ft 392kts
08-Nov-18 19:05 33.646323 -114.084135 268 36063ft 391kts
08-Nov-18 19:06 33.655135 -114.214192 275 36060ft 392kts
08-Nov-18 19:07 33.667854 -114.343656 275 36058ft 392kts
08-Nov-18 19:08 33.678465 -114.452019 275 36056ft 392kts
08-Nov-18 19:09 33.691062 -114.581720 275 36054ft 392kts
08-Nov-18 19:10 33.703445 -114.710615 275 36068ft 393kts
08-Nov-18 19:11 33.715651 -114.839041 275 36067ft 392kts
08-Nov-18 19:12 33.727892 -114.969314 274 36065ft 392kts
08-Nov-18 19:13 33.742042 -115.121958 275 36061ft 398kts
08-Nov-18 19:14 33.752673 -115.231329 276 36047ft 386kts
08-Nov-18 19:15 33.764848 -115.351245 276 35779ft 390kts
08-Nov-18 19:16 33.778042 -115.480113 277 33785ft 390kts
08-Nov-18 19:17 33.791430 -115.610390 278 31787ft 401kts
08-Nov-18 19:18 33.804264 -115.737730 278 29992ft 415kts
08-Nov-18 19:19 33.817922 -115.874904 279 27417ft 416kts
08-Nov-18 19:20 33.831449 -116.012267 280 24416ft 416kts
08-Nov-18 19:21 33.844647 -116.146880 281 21568ft 389kts
08-Nov-18 19:22 33.857629 -116.274294 281 18678ft 401kts
08-Nov-18 19:23 33.871498 -116.402859 281 15668ft 380kts
08-Nov-18 19:24 33.893054 -116.519164 290 13486ft 365kts
08-Nov-18 19:25 33.922048 -116.634272 290 11843ft 359kts
08-Nov-18 19:26 33.946160 -116.731886 284 10965ft 354kts
08-Nov-18 19:27 33.945359 -116.838424 270 10048ft 335kts
08-Nov-18 19:28 33.941745 -116.945561 270 9324ft 301kts
08-Nov-18 19:29 33.940763 -117.040278 271 9082ft 278kts
08-Nov-18 19:30 33.940268 -117.131014 271 8483ft 275kts
08-Nov-18 19:31 33.939753 -117.221746 272 7703ft 272kts
08-Nov-18 19:32 33.939171 -117.312711 272 6831ft 270kts
08-Nov-18 19:33 33.938848 -117.401106 273 6154ft 268kts
08-Nov-18 19:34 33.940835 -117.488804 274 5971ft 256kts
08-Nov-18 19:35 33.946366 -117.568129 281 5966ft 232kts
08-Nov-18 19:36 33.956187 -117.644583 278 5519ft 236kts
08-Nov-18 19:37 33.963913 -117.718113 278 4527ft 222kts
08-Nov-18 19:38 33.977328 -117.787202 294 3584ft 199kts
08-Nov-18 19:39 34.013233 -117.798274 31 3148ft 161kts
08-Nov-18 19:40 34.037498 -117.760814 68 2584ft 145kts
08-Nov-18 19:41 34.050705 -117.715976 67 2306ft 140kts
08-Nov-18 19:42 34.057205 -117.670130 91 1776ft 145kts
08-Nov-18 19:43 34.056809 -117.624108 83 1047ft 134kts
08-Nov-18 19:44 34.056880 -117.592514 89 948ft 41kts
08-Nov-18 19:45 34.057703 -117.589547 357 948ft 3kts
08-Nov-18 19:46 34.058009 -117.589563 358 948ft 2kts
08-Nov-18 19:47 34.058094 -117.589394 89 948ft 4kts
08-Nov-18 19:48 34.058007 -117.585562 89 948ft 18kts
08-Nov-18 19:49 34.057882 -117.582423 173 948ft 0kts
08-Nov-18 19:50 34.056807 -117.582384 179 948ft 10kts
08-Nov-18 19:51 34.052618 -117.581963 134 948ft 20kts
08-Nov-18 19:52 34.052142 -117.578074 159 948ft 0kts

Navigation Log

Ident Type
Flight plan parsing failed, navigation log unavailable